createdAt,value
2018-08-31T00:00:11.994Z,15.00
2018-08-31T00:02:49.650Z,15.00
2018-08-31T00:05:46.982Z,15.00
2018-08-31T00:09:29.544Z,15.00
2018-08-31T00:12:41.716Z,15.10
2018-08-31T00:15:16.449Z,15.00
2018-08-31T00:17:52.054Z,14.90
2018-08-31T00:20:28.017Z,14.90
2018-08-31T00:23:02.929Z,15.10
2018-08-31T00:26:15.405Z,15.20
2018-08-31T00:29:55.541Z,15.20
2018-08-31T00:34:45.207Z,15.20
2018-08-31T00:37:45.171Z,15.00
2018-08-31T00:41:37.978Z,15.00
2018-08-31T00:45:08.953Z,14.90
2018-08-31T00:47:43.799Z,14.80
2018-08-31T00:50:18.830Z,14.90
2018-08-31T00:52:53.589Z,14.90
2018-08-31T00:55:28.857Z,14.90
2018-08-31T00:58:03.456Z,14.80
2018-08-31T01:00:38.932Z,14.90
2018-08-31T01:03:14.244Z,14.90
2018-08-31T01:05:48.973Z,15.00
2018-08-31T01:08:24.115Z,15.00
2018-08-31T01:10:58.810Z,15.10
2018-08-31T01:13:34.250Z,15.00
2018-08-31T01:16:09.341Z,14.90
2018-08-31T01:18:44.057Z,14.90
2018-08-31T01:21:18.693Z,14.60
2018-08-31T01:23:53.790Z,14.50
2018-08-31T01:26:28.734Z,14.60
2018-08-31T01:29:03.630Z,14.60
2018-08-31T01:31:38.806Z,14.60
2018-08-31T01:34:13.581Z,14.50
2018-08-31T01:36:48.255Z,14.60
2018-08-31T01:39:23.025Z,14.60
2018-08-31T01:41:57.808Z,14.60
2018-08-31T01:44:33.217Z,14.70
2018-08-31T01:47:07.906Z,14.70
2018-08-31T01:49:43.070Z,14.60
2018-08-31T01:52:18.481Z,14.70
2018-08-31T01:54:54.169Z,14.70
2018-08-31T01:57:28.979Z,14.60
2018-08-31T02:00:04.234Z,14.60
2018-08-31T02:02:39.490Z,14.70
2018-08-31T02:05:14.250Z,14.70
2018-08-31T02:07:49.373Z,14.70
2018-08-31T02:10:24.365Z,14.60
2018-08-31T02:12:59.370Z,14.60
2018-08-31T02:15:34.029Z,14.60
2018-08-31T02:18:08.837Z,14.50
2018-08-31T02:20:44.390Z,14.50
2018-08-31T02:23:19.066Z,14.50
2018-08-31T02:25:54.005Z,14.40
2018-08-31T02:28:28.857Z,14.40
2018-08-31T02:31:03.795Z,14.40
2018-08-31T02:33:39.507Z,14.30
2018-08-31T02:36:14.585Z,14.00
2018-08-31T02:38:49.833Z,14.10
2018-08-31T02:41:24.869Z,13.90
2018-08-31T02:43:59.874Z,14.00
2018-08-31T02:46:34.817Z,14.10
2018-08-31T02:49:09.858Z,14.10
2018-08-31T02:51:44.605Z,14.10
2018-08-31T02:54:19.525Z,14.10
2018-08-31T02:56:54.373Z,14.10
2018-08-31T02:59:29.337Z,14.20
2018-08-31T03:02:05.338Z,14.30
2018-08-31T03:04:40.974Z,14.40
2018-08-31T03:07:15.859Z,14.40
2018-08-31T03:09:50.695Z,14.40
2018-08-31T03:12:25.686Z,14.30
2018-08-31T03:15:00.442Z,14.40
2018-08-31T03:17:35.454Z,14.40
2018-08-31T03:20:10.141Z,14.40
2018-08-31T03:22:45.648Z,14.40
2018-08-31T03:25:20.304Z,14.40
2018-08-31T03:27:55.217Z,14.40
2018-08-31T03:30:30.162Z,14.30
2018-08-31T03:33:05.419Z,14.30
2018-08-31T03:35:40.265Z,14.40
2018-08-31T03:38:15.440Z,14.30
2018-08-31T03:40:50.474Z,14.30
2018-08-31T03:43:25.294Z,14.30
2018-08-31T03:46:00.710Z,14.30
2018-08-31T03:48:35.691Z,14.30
2018-08-31T03:51:10.526Z,14.30
2018-08-31T03:53:45.710Z,14.10
2018-08-31T03:56:20.582Z,14.00
2018-08-31T03:58:55.378Z,14.00
2018-08-31T04:01:30.966Z,14.10
2018-08-31T04:04:05.821Z,14.00
2018-08-31T04:06:40.729Z,14.10
2018-08-31T04:09:15.686Z,14.10
2018-08-31T04:11:50.899Z,14.10
2018-08-31T04:14:25.723Z,14.10
2018-08-31T04:17:07.237Z,14.10
2018-08-31T04:19:42.086Z,14.00
2018-08-31T04:22:17.090Z,13.90
2018-08-31T04:24:52.174Z,13.90
2018-08-31T04:27:27.075Z,13.90
2018-08-31T04:30:01.689Z,14.00
2018-08-31T04:32:36.505Z,13.90
2018-08-31T04:35:11.390Z,14.00
2018-08-31T04:37:46.065Z,14.10
2018-08-31T04:40:21.139Z,14.10
2018-08-31T04:42:55.986Z,14.10
2018-08-31T04:45:30.923Z,14.10
2018-08-31T04:48:06.369Z,14.20
2018-08-31T04:50:41.343Z,14.10
2018-08-31T04:53:16.069Z,14.10
2018-08-31T04:55:50.950Z,14.10
2018-08-31T04:58:25.902Z,14.10
2018-08-31T05:01:00.674Z,14.00
2018-08-31T05:03:35.630Z,14.00
2018-08-31T05:06:10.422Z,14.00
2018-08-31T05:08:45.957Z,14.10
2018-08-31T05:11:22.437Z,14.10
2018-08-31T05:13:58.249Z,14.00
2018-08-31T05:16:33.223Z,14.00
2018-08-31T05:19:07.934Z,13.90
2018-08-31T05:21:43.069Z,13.90
2018-08-31T05:24:17.698Z,13.90
2018-08-31T05:26:53.186Z,13.90
2018-08-31T05:29:28.164Z,13.90
2018-08-31T05:32:03.095Z,14.00
2018-08-31T05:34:38.269Z,14.00
2018-08-31T05:37:13.706Z,14.10
2018-08-31T05:39:48.642Z,14.10
2018-08-31T05:42:23.488Z,14.20
2018-08-31T05:44:58.662Z,14.20
2018-08-31T05:47:33.535Z,14.20
2018-08-31T05:50:08.383Z,14.30
2018-08-31T05:52:43.389Z,14.20
2018-08-31T05:55:18.186Z,14.20
2018-08-31T05:57:52.857Z,14.30
2018-08-31T06:00:28.012Z,14.30
2018-08-31T06:03:02.905Z,14.30
2018-08-31T06:05:37.638Z,14.20
2018-08-31T06:08:15.450Z,14.20
2018-08-31T06:10:50.238Z,14.30
2018-08-31T06:13:25.020Z,14.30
2018-08-31T06:16:00.898Z,14.30
2018-08-31T06:18:36.939Z,14.40
2018-08-31T06:21:12.107Z,14.40
2018-08-31T06:23:46.884Z,14.50
2018-08-31T06:26:21.878Z,14.50
2018-08-31T06:28:56.972Z,14.50
2018-08-31T06:31:31.790Z,14.40
2018-08-31T06:34:06.916Z,14.40
2018-08-31T06:36:41.537Z,14.50
2018-08-31T06:39:16.249Z,14.40
2018-08-31T06:41:51.086Z,14.40
2018-08-31T06:44:25.938Z,14.50
2018-08-31T06:47:00.721Z,14.60
2018-08-31T06:49:35.698Z,14.50
2018-08-31T06:52:10.489Z,14.60
2018-08-31T06:54:46.028Z,14.70
2018-08-31T06:57:20.897Z,14.70
2018-08-31T06:59:56.234Z,14.70
2018-08-31T07:02:31.018Z,14.70
2018-08-31T07:05:06.770Z,14.70
2018-08-31T07:07:41.589Z,14.80
2018-08-31T07:10:16.558Z,15.00
2018-08-31T07:12:51.447Z,15.00
2018-08-31T07:15:26.356Z,15.20
2018-08-31T07:18:01.515Z,15.10
2018-08-31T07:20:36.281Z,15.20
2018-08-31T07:23:11.087Z,15.40
2018-08-31T07:25:45.902Z,15.40
2018-08-31T07:28:20.930Z,15.40
2018-08-31T07:30:55.566Z,15.40
2018-08-31T07:33:30.407Z,15.40
2018-08-31T07:36:05.691Z,15.50
2018-08-31T07:38:40.371Z,15.60
2018-08-31T07:41:16.681Z,15.60
2018-08-31T07:43:51.551Z,15.80
2018-08-31T07:46:26.459Z,15.70
2018-08-31T07:49:01.712Z,15.70
2018-08-31T07:51:36.341Z,15.80
2018-08-31T07:54:11.154Z,15.70
2018-08-31T07:56:46.272Z,15.70
2018-08-31T07:59:20.945Z,15.70
2018-08-31T08:01:55.763Z,15.70
2018-08-31T08:04:30.593Z,15.80
2018-08-31T08:07:05.910Z,15.80
2018-08-31T08:09:41.021Z,15.90
2018-08-31T08:12:15.856Z,16.10
2018-08-31T08:14:50.739Z,16.20
2018-08-31T08:17:25.613Z,16.20
2018-08-31T08:20:01.159Z,16.30
2018-08-31T08:22:36.488Z,16.30
2018-08-31T08:25:11.784Z,16.10
2018-08-31T08:27:47.234Z,16.20
2018-08-31T08:30:22.346Z,16.40
2018-08-31T08:32:57.045Z,16.40
2018-08-31T08:35:32.678Z,16.40
2018-08-31T08:38:07.743Z,16.50
2018-08-31T08:40:42.635Z,16.60
2018-08-31T08:43:17.286Z,16.60
2018-08-31T08:45:52.664Z,16.60
2018-08-31T08:48:27.580Z,16.60
2018-08-31T08:51:03.226Z,16.50
2018-08-31T08:53:37.937Z,16.60
2018-08-31T08:56:13.002Z,16.60
2018-08-31T08:58:48.610Z,16.50
2018-08-31T09:01:23.513Z,16.50
2018-08-31T09:03:59.190Z,16.40
2018-08-31T09:06:34.724Z,16.30
2018-08-31T09:09:10.760Z,16.40
2018-08-31T09:11:46.316Z,16.60
2018-08-31T09:14:21.225Z,16.70
2018-08-31T09:16:56.260Z,16.70
2018-08-31T09:19:31.084Z,16.60
2018-08-31T09:22:10.223Z,16.70
2018-08-31T09:24:45.155Z,16.70
2018-08-31T09:27:20.174Z,16.80
2018-08-31T09:29:55.398Z,16.70
2018-08-31T09:32:32.318Z,16.70
2018-08-31T09:35:07.317Z,16.70
2018-08-31T09:37:42.107Z,16.70
2018-08-31T09:40:17.535Z,16.60
2018-08-31T09:42:53.007Z,16.40
2018-08-31T09:45:27.614Z,16.20
2018-08-31T09:48:02.628Z,16.40
2018-08-31T09:50:37.409Z,16.70
2018-08-31T09:53:13.121Z,16.70
2018-08-31T09:55:47.813Z,16.60
2018-08-31T09:58:22.776Z,16.60
2018-08-31T10:01:02.880Z,16.70
2018-08-31T10:03:37.929Z,16.80
2018-08-31T10:06:13.336Z,16.80
2018-08-31T10:08:48.888Z,16.60
2018-08-31T10:11:24.029Z,16.60
2018-08-31T10:13:59.478Z,16.80
2018-08-31T10:16:34.204Z,16.60
2018-08-31T10:19:09.061Z,16.70
2018-08-31T10:21:43.942Z,16.70
2018-08-31T10:24:19.421Z,16.70
2018-08-31T10:26:54.121Z,16.90
2018-08-31T10:29:29.400Z,17.00
2018-08-31T10:32:07.124Z,17.10
2018-08-31T10:34:42.350Z,16.70
2018-08-31T10:37:17.209Z,16.50
2018-08-31T10:39:51.970Z,16.30
2018-08-31T10:42:26.923Z,16.40
2018-08-31T10:45:01.690Z,16.20
2018-08-31T10:47:36.768Z,16.10
2018-08-31T10:50:12.425Z,16.30
2018-08-31T10:52:47.115Z,16.20
2018-08-31T10:55:22.221Z,16.10
2018-08-31T10:57:56.861Z,15.90
2018-08-31T11:00:31.925Z,15.90
2018-08-31T11:03:06.991Z,15.90
2018-08-31T11:05:41.814Z,15.80
2018-08-31T11:08:16.712Z,15.80
2018-08-31T11:10:51.515Z,15.60
2018-08-31T11:13:26.641Z,15.70
2018-08-31T11:16:01.461Z,15.80
2018-08-31T11:18:36.269Z,15.70
2018-08-31T11:21:11.040Z,15.50
2018-08-31T11:23:45.917Z,15.70
2018-08-31T11:26:20.663Z,15.80
2018-08-31T11:28:55.519Z,15.90
2018-08-31T11:31:30.307Z,15.80
2018-08-31T11:34:05.249Z,15.90
2018-08-31T11:36:40.667Z,15.80
2018-08-31T11:39:15.763Z,15.90
2018-08-31T11:41:50.757Z,15.80
2018-08-31T11:44:32.210Z,15.60
2018-08-31T11:47:07.130Z,15.70
2018-08-31T11:49:42.482Z,15.70
2018-08-31T11:52:17.533Z,15.70
2018-08-31T11:54:52.306Z,15.70
2018-08-31T11:57:27.141Z,15.60
2018-08-31T12:00:01.833Z,15.40
2018-08-31T12:02:36.632Z,15.30
2018-08-31T12:05:11.571Z,15.30
2018-08-31T12:07:46.431Z,15.10
2018-08-31T12:10:22.034Z,15.10
2018-08-31T12:12:56.818Z,15.20
2018-08-31T12:15:32.235Z,15.30
2018-08-31T12:18:07.342Z,15.20
2018-08-31T12:20:42.123Z,15.20
2018-08-31T12:23:17.522Z,15.20
2018-08-31T12:25:52.434Z,15.10
2018-08-31T12:28:28.077Z,15.20
2018-08-31T12:31:03.361Z,15.10
2018-08-31T12:33:38.779Z,15.10
2018-08-31T12:36:13.586Z,15.20
2018-08-31T12:38:48.521Z,15.20
2018-08-31T12:41:23.382Z,15.20
2018-08-31T12:43:58.601Z,15.10
2018-08-31T12:46:33.655Z,15.10
2018-08-31T12:49:09.712Z,15.20
2018-08-31T12:51:44.626Z,15.20
2018-08-31T12:54:19.654Z,15.20
2018-08-31T12:56:54.855Z,15.20
2018-08-31T12:59:29.939Z,15.10
2018-08-31T13:02:04.970Z,15.20
2018-08-31T13:04:40.036Z,15.10
2018-08-31T13:07:15.377Z,15.10
2018-08-31T13:09:50.311Z,15.10
2018-08-31T13:12:26.346Z,15.00
2018-08-31T13:15:01.128Z,15.10
2018-08-31T13:17:36.529Z,15.10
2018-08-31T13:20:11.345Z,15.10
2018-08-31T13:22:46.674Z,15.00
2018-08-31T13:25:21.777Z,15.00
2018-08-31T13:27:56.683Z,15.00
2018-08-31T13:30:31.489Z,15.00
2018-08-31T13:33:06.653Z,14.90
2018-08-31T13:35:41.460Z,15.00
2018-08-31T13:38:16.553Z,14.70
2018-08-31T13:40:51.894Z,15.20
2018-08-31T13:43:26.924Z,15.00
2018-08-31T13:46:01.990Z,14.70
2018-08-31T13:48:36.982Z,14.70
2018-08-31T13:51:11.982Z,14.70
2018-08-31T13:53:46.841Z,14.70
2018-08-31T13:56:22.822Z,14.70
2018-08-31T13:58:57.573Z,14.70
2018-08-31T14:01:32.572Z,14.70
2018-08-31T14:04:07.590Z,14.60
2018-08-31T14:06:43.386Z,14.70
2018-08-31T14:09:18.176Z,14.70
2018-08-31T14:11:53.034Z,14.60
2018-08-31T14:14:27.871Z,14.70
2018-08-31T14:17:03.262Z,14.70
2018-08-31T14:19:37.977Z,14.60
2018-08-31T14:22:13.095Z,14.80
2018-08-31T14:24:47.833Z,14.60
2018-08-31T14:27:22.940Z,14.60
2018-08-31T14:29:58.016Z,14.70
2018-08-31T14:32:33.573Z,14.70
2018-08-31T14:35:08.586Z,14.70
2018-08-31T14:37:44.611Z,14.70
2018-08-31T14:40:19.598Z,14.80
2018-08-31T14:42:54.763Z,14.70
2018-08-31T14:45:29.725Z,14.50
2018-08-31T14:48:04.680Z,14.60
2018-08-31T14:50:39.613Z,14.70
2018-08-31T14:53:15.091Z,14.60
2018-08-31T14:55:49.949Z,14.70
2018-08-31T14:58:25.076Z,14.50
2018-08-31T15:01:03.088Z,14.40
2018-08-31T15:03:38.405Z,14.40
2018-08-31T15:06:13.479Z,14.50
2018-08-31T15:08:48.422Z,14.70
2018-08-31T15:11:23.467Z,14.60
2018-08-31T15:13:58.517Z,14.60
2018-08-31T15:16:33.241Z,14.50
2018-08-31T15:19:08.707Z,14.60
2018-08-31T15:21:43.709Z,14.60
2018-08-31T15:24:18.849Z,14.60
2018-08-31T15:26:53.892Z,14.60
2018-08-31T15:29:28.832Z,14.60
2018-08-31T15:32:03.901Z,14.50
2018-08-31T15:34:38.824Z,14.60
2018-08-31T15:37:14.826Z,14.60
2018-08-31T15:39:50.220Z,14.80
2018-08-31T15:42:25.463Z,14.80
2018-08-31T15:45:00.490Z,14.60
2018-08-31T15:47:35.346Z,14.60
2018-08-31T15:50:10.149Z,14.70
2018-08-31T15:52:44.887Z,14.60
2018-08-31T15:55:20.447Z,14.60
2018-08-31T15:57:55.484Z,14.70
2018-08-31T16:00:30.309Z,14.50
2018-08-31T16:03:05.285Z,14.30
2018-08-31T16:05:40.446Z,14.40
2018-08-31T16:08:15.342Z,14.60
2018-08-31T16:10:51.147Z,14.70
2018-08-31T16:13:26.558Z,14.60
2018-08-31T16:16:01.376Z,14.70
2018-08-31T16:18:36.345Z,14.70
2018-08-31T16:21:11.290Z,14.80
2018-08-31T16:23:46.582Z,14.70
2018-08-31T16:26:21.474Z,14.70
2018-08-31T16:28:56.717Z,14.70
2018-08-31T16:31:31.895Z,14.60
2018-08-31T16:34:07.777Z,14.60
2018-08-31T16:36:43.105Z,14.40
2018-08-31T16:39:18.574Z,14.60
2018-08-31T16:41:53.793Z,14.50
2018-08-31T16:44:28.836Z,14.40
2018-08-31T16:47:03.656Z,14.50
2018-08-31T16:49:38.894Z,14.60
2018-08-31T16:52:13.893Z,14.60
2018-08-31T16:54:49.278Z,14.60
2018-08-31T16:57:24.166Z,14.60
2018-08-31T16:59:59.565Z,14.60
2018-08-31T17:02:35.182Z,14.60
2018-08-31T17:05:10.079Z,14.60
2018-08-31T17:07:45.439Z,14.50
2018-08-31T17:10:20.379Z,14.40
2018-08-31T17:12:55.903Z,14.40
2018-08-31T17:15:30.907Z,14.40
2018-08-31T17:18:05.785Z,14.40
2018-08-31T17:20:40.694Z,14.50
2018-08-31T17:23:15.560Z,14.50
2018-08-31T17:25:50.807Z,14.40
2018-08-31T17:28:30.984Z,14.30
2018-08-31T17:31:11.449Z,14.30
2018-08-31T17:33:51.431Z,14.40
2018-08-31T17:36:31.655Z,14.30
2018-08-31T17:39:09.111Z,14.40
2018-08-31T17:41:44.134Z,14.40
2018-08-31T17:44:19.142Z,14.40
2018-08-31T17:46:54.412Z,14.30
2018-08-31T17:49:29.557Z,14.20
2018-08-31T17:52:04.657Z,14.30
2018-08-31T17:54:39.588Z,14.30
2018-08-31T17:57:14.611Z,14.40
2018-08-31T17:59:49.693Z,14.30
2018-08-31T18:02:24.747Z,14.30
2018-08-31T18:04:59.730Z,14.30
2018-08-31T18:07:34.754Z,14.20
2018-08-31T18:10:09.613Z,14.20
2018-08-31T18:12:45.138Z,14.20
2018-08-31T18:15:20.100Z,14.20
2018-08-31T18:17:55.181Z,14.20
2018-08-31T18:20:30.293Z,14.20
2018-08-31T18:23:05.312Z,14.10
2018-08-31T18:25:40.557Z,14.20
2018-08-31T18:28:16.154Z,14.20
2018-08-31T18:30:52.506Z,14.10
2018-08-31T18:33:27.470Z,14.20
2018-08-31T18:36:02.728Z,13.90
2018-08-31T18:38:37.521Z,13.90
2018-08-31T18:41:12.332Z,13.90
2018-08-31T18:43:47.244Z,13.90
2018-08-31T18:46:22.571Z,14.00
2018-08-31T18:48:58.114Z,14.00
2018-08-31T18:51:33.024Z,14.10
2018-08-31T18:54:08.233Z,14.00
2018-08-31T18:56:44.186Z,13.80
2018-08-31T18:59:19.006Z,13.80
2018-08-31T19:01:54.325Z,13.90
2018-08-31T19:04:29.430Z,13.90
2018-08-31T19:07:05.563Z,13.80
2018-08-31T19:09:40.866Z,13.80
2018-08-31T19:12:15.655Z,13.90
2018-08-31T19:14:51.739Z,13.90
2018-08-31T19:17:26.853Z,13.90
2018-08-31T19:20:01.911Z,14.00
2018-08-31T19:22:37.444Z,13.90
2018-08-31T19:25:13.119Z,13.90
2018-08-31T19:27:48.717Z,13.80
2018-08-31T19:30:30.187Z,13.90
2018-08-31T19:33:05.040Z,13.90
2018-08-31T19:35:39.976Z,13.80
2018-08-31T19:38:14.882Z,13.80
2018-08-31T19:40:50.242Z,13.80
2018-08-31T19:43:25.457Z,13.90
2018-08-31T19:46:00.573Z,13.90
2018-08-31T19:48:35.479Z,13.90
2018-08-31T19:51:10.588Z,13.90
2018-08-31T19:53:45.558Z,13.90
2018-08-31T19:56:25.102Z,13.90
2018-08-31T19:59:00.579Z,13.90
2018-08-31T20:01:35.699Z,13.90
2018-08-31T20:04:10.732Z,13.90
2018-08-31T20:06:46.051Z,13.90
2018-08-31T20:09:21.466Z,13.90
2018-08-31T20:11:56.610Z,13.80
2018-08-31T20:14:31.567Z,13.90
2018-08-31T20:17:06.797Z,13.90
2018-08-31T20:19:43.982Z,13.90
2018-08-31T20:22:18.831Z,13.90
2018-08-31T20:24:53.810Z,14.00
2018-08-31T20:27:29.566Z,14.00
2018-08-31T20:30:04.879Z,13.90
2018-08-31T20:32:39.946Z,14.00
2018-08-31T20:35:16.525Z,13.90
2018-08-31T20:37:51.610Z,13.90
2018-08-31T20:40:26.197Z,13.90
2018-08-31T20:43:04.183Z,13.90
2018-08-31T20:45:39.593Z,13.80
2018-08-31T20:48:14.754Z,13.80
2018-08-31T20:50:49.877Z,13.80
2018-08-31T20:53:24.837Z,13.90
2018-08-31T20:55:59.670Z,13.90
2018-08-31T20:58:34.751Z,13.90
2018-08-31T21:01:10.018Z,13.90
2018-08-31T21:03:45.078Z,13.90
2018-08-31T21:06:20.356Z,13.90
2018-08-31T21:08:55.360Z,13.90
2018-08-31T21:11:30.331Z,14.00
2018-08-31T21:14:05.757Z,13.90
2018-08-31T21:16:40.582Z,13.90
2018-08-31T21:19:16.539Z,13.90
2018-08-31T21:21:51.634Z,13.90
2018-08-31T21:24:26.502Z,13.90
2018-08-31T21:27:01.721Z,13.90
2018-08-31T21:29:36.501Z,14.00
2018-08-31T21:32:11.671Z,13.90
2018-08-31T21:34:46.628Z,14.00
2018-08-31T21:37:21.662Z,13.90
2018-08-31T21:39:56.592Z,13.90
2018-08-31T21:42:31.625Z,13.90
2018-08-31T21:45:06.610Z,13.90
2018-08-31T21:47:41.682Z,13.90
2018-08-31T21:50:16.888Z,13.90
2018-08-31T21:52:51.682Z,13.90
2018-08-31T21:55:26.618Z,13.90
2018-08-31T21:58:01.795Z,13.80
2018-08-31T22:00:42.874Z,13.90
2018-08-31T22:03:17.854Z,13.90
2018-08-31T22:05:52.692Z,13.90
2018-08-31T22:08:27.694Z,13.90
2018-08-31T22:11:02.626Z,13.90
2018-08-31T22:13:37.494Z,13.90
2018-08-31T22:16:13.050Z,14.00
2018-08-31T22:18:47.720Z,13.90
2018-08-31T22:21:23.485Z,13.90
2018-08-31T22:23:58.307Z,13.90
2018-08-31T22:26:33.054Z,13.90
2018-08-31T22:29:09.697Z,13.90
2018-08-31T22:31:44.543Z,13.90
2018-08-31T22:34:19.682Z,13.90
2018-08-31T22:36:54.779Z,13.90
2018-08-31T22:39:29.785Z,13.90
2018-08-31T22:42:04.496Z,13.90
2018-08-31T22:44:39.353Z,13.90
2018-08-31T22:47:14.064Z,13.90
2018-08-31T22:49:49.013Z,13.80
2018-08-31T22:52:24.145Z,13.80
2018-08-31T22:54:59.161Z,13.70
2018-08-31T22:57:34.000Z,13.70
2018-08-31T23:00:09.178Z,13.70
2018-08-31T23:02:44.134Z,13.80
2018-08-31T23:05:19.028Z,13.80
2018-08-31T23:07:59.108Z,13.80
2018-08-31T23:10:34.089Z,13.80
2018-08-31T23:13:09.185Z,13.80
2018-08-31T23:15:44.222Z,13.80
2018-08-31T23:18:19.103Z,13.80
2018-08-31T23:20:53.851Z,13.80
2018-08-31T23:23:32.799Z,13.80
2018-08-31T23:26:08.010Z,13.90
2018-08-31T23:28:42.607Z,13.80
2018-08-31T23:31:17.444Z,13.90
2018-08-31T23:33:52.787Z,13.90
2018-08-31T23:36:27.634Z,13.90
2018-08-31T23:39:02.793Z,13.90
2018-08-31T23:41:37.629Z,13.80
2018-08-31T23:44:12.417Z,13.80
2018-08-31T23:46:47.190Z,13.80
2018-08-31T23:49:21.966Z,13.80
2018-08-31T23:51:56.915Z,13.80
2018-08-31T23:54:31.905Z,13.80
2018-08-31T23:57:06.736Z,13.80
2018-08-31T23:59:41.858Z,13.60
